sensor_id;sensor_type;location;lat;lon;timestamp;P1;durP1;ratioP1;P2;durP2;ratioP2
39924;SDS011;25592;49.986;11.618;2022-08-03T00:02:08;4.38;;;1.90;;
39924;SDS011;25592;49.986;11.618;2022-08-03T00:04:54;3.78;;;1.90;;
39924;SDS011;25592;49.986;11.618;2022-08-03T00:07:39;3.33;;;1.92;;
39924;SDS011;25592;49.986;11.618;2022-08-03T00:10:24;3.10;;;1.80;;
39924;SDS011;25592;49.986;11.618;2022-08-03T00:13:10;6.00;;;2.25;;
39924;SDS011;25592;49.986;11.618;2022-08-03T00:15:56;3.03;;;1.92;;
39924;SDS011;25592;49.986;11.618;2022-08-03T00:18:42;4.25;;;1.88;;
39924;SDS011;25592;49.986;11.618;2022-08-03T00:21:27;3.00;;;1.88;;
39924;SDS011;25592;49.986;11.618;2022-08-03T00:24:12;3.10;;;1.52;;
39924;SDS011;25592;49.986;11.618;2022-08-03T00:26:58;3.35;;;1.88;;
39924;SDS011;25592;49.986;11.618;2022-08-03T00:29:43;3.55;;;2.10;;
39924;SDS011;25592;49.986;11.618;2022-08-03T00:32:43;3.55;;;1.92;;
39924;SDS011;25592;49.986;11.618;2022-08-03T00:35:29;3.55;;;2.03;;
39924;SDS011;25592;49.986;11.618;2022-08-03T00:38:34;3.45;;;1.85;;
39924;SDS011;25592;49.986;11.618;2022-08-03T00:41:19;3.15;;;2.15;;
39924;SDS011;25592;49.986;11.618;2022-08-03T00:44:05;6.07;;;2.35;;
39924;SDS011;25592;49.986;11.618;2022-08-03T00:46:50;3.13;;;1.98;;
39924;SDS011;25592;49.986;11.618;2022-08-03T00:49:36;4.68;;;2.55;;
39924;SDS011;25592;49.986;11.618;2022-08-03T00:52:24;4.38;;;2.38;;
39924;SDS011;25592;49.986;11.618;2022-08-03T00:55:10;4.43;;;2.30;;
39924;SDS011;25592;49.986;11.618;2022-08-03T00:57:56;3.55;;;2.17;;
39924;SDS011;25592;49.986;11.618;2022-08-03T01:00:42;4.10;;;2.17;;
39924;SDS011;25592;49.986;11.618;2022-08-03T01:03:28;6.28;;;1.95;;
39924;SDS011;25592;49.986;11.618;2022-08-03T01:09:08;3.78;;;2.25;;
39924;SDS011;25592;49.986;11.618;2022-08-03T01:12:10;4.05;;;2.25;;
39924;SDS011;25592;49.986;11.618;2022-08-03T01:20:54;4.50;;;1.98;;
39924;SDS011;25592;49.986;11.618;2022-08-03T01:29:38;3.33;;;2.20;;
39924;SDS011;25592;49.986;11.618;2022-08-03T01:32:36;6.13;;;2.30;;
39924;SDS011;25592;49.986;11.618;2022-08-03T01:35:53;4.32;;;2.20;;
39924;SDS011;25592;49.986;11.618;2022-08-03T01:38:45;5.13;;;2.40;;
39924;SDS011;25592;49.986;11.618;2022-08-03T01:41:35;2.92;;;1.90;;
39924;SDS011;25592;49.986;11.618;2022-08-03T01:44:29;4.03;;;2.10;;
39924;SDS011;25592;49.986;11.618;2022-08-03T01:47:19;3.15;;;1.80;;
39924;SDS011;25592;49.986;11.618;2022-08-03T01:50:06;7.85;;;2.10;;
39924;SDS011;25592;49.986;11.618;2022-08-03T01:52:55;3.25;;;2.20;;
39924;SDS011;25592;49.986;11.618;2022-08-03T01:55:42;2.95;;;2.00;;
39924;SDS011;25592;49.986;11.618;2022-08-03T01:58:29;4.40;;;2.60;;
39924;SDS011;25592;49.986;11.618;2022-08-03T02:01:16;6.20;;;2.17;;
39924;SDS011;25592;49.986;11.618;2022-08-03T02:04:02;3.47;;;2.00;;
39924;SDS011;25592;49.986;11.618;2022-08-03T02:06:50;3.70;;;2.42;;
39924;SDS011;25592;49.986;11.618;2022-08-03T02:09:49;4.82;;;2.15;;
39924;SDS011;25592;49.986;11.618;2022-08-03T02:12:36;4.15;;;2.30;;
39924;SDS011;25592;49.986;11.618;2022-08-03T02:15:23;4.97;;;2.10;;
39924;SDS011;25592;49.986;11.618;2022-08-03T02:18:10;4.13;;;1.98;;
39924;SDS011;25592;49.986;11.618;2022-08-03T02:20:55;5.32;;;2.35;;
39924;SDS011;25592;49.986;11.618;2022-08-03T02:23:42;4.63;;;1.95;;
39924;SDS011;25592;49.986;11.618;2022-08-03T02:26:28;3.50;;;2.08;;
39924;SDS011;25592;49.986;11.618;2022-08-03T02:29:15;3.17;;;2.10;;
39924;SDS011;25592;49.986;11.618;2022-08-03T02:32:27;3.85;;;2.83;;
39924;SDS011;25592;49.986;11.618;2022-08-03T02:35:14;2.70;;;1.70;;
39924;SDS011;25592;49.986;11.618;2022-08-03T02:38:03;2.88;;;1.80;;
39924;SDS011;25592;49.986;11.618;2022-08-03T02:40:51;4.63;;;1.85;;
39924;SDS011;25592;49.986;11.618;2022-08-03T02:43:39;3.00;;;2.00;;
39924;SDS011;25592;49.986;11.618;2022-08-03T02:46:52;2.90;;;1.90;;
39924;SDS011;25592;49.986;11.618;2022-08-03T02:49:42;2.97;;;1.90;;
39924;SDS011;25592;49.986;11.618;2022-08-03T02:52:35;3.30;;;2.05;;
39924;SDS011;25592;49.986;11.618;2022-08-03T02:55:22;3.70;;;1.83;;
39924;SDS011;25592;49.986;11.618;2022-08-03T02:58:09;3.38;;;2.03;;
39924;SDS011;25592;49.986;11.618;2022-08-03T03:00:57;2.50;;;1.77;;
39924;SDS011;25592;49.986;11.618;2022-08-03T03:03:43;5.22;;;1.80;;
39924;SDS011;25592;49.986;11.618;2022-08-03T03:06:31;3.40;;;1.95;;
39924;SDS011;25592;49.986;11.618;2022-08-03T03:09:17;3.20;;;1.90;;
39924;SDS011;25592;49.986;11.618;2022-08-03T03:12:03;2.97;;;1.80;;
39924;SDS011;25592;49.986;11.618;2022-08-03T03:14:51;3.10;;;1.98;;
39924;SDS011;25592;49.986;11.618;2022-08-03T03:17:37;3.03;;;2.00;;
39924;SDS011;25592;49.986;11.618;2022-08-03T03:20:23;6.43;;;2.05;;
39924;SDS011;25592;49.986;11.618;2022-08-03T03:23:14;4.78;;;2.03;;
39924;SDS011;25592;49.986;11.618;2022-08-03T03:26:00;3.05;;;2.15;;
39924;SDS011;25592;49.986;11.618;2022-08-03T03:28:46;3.35;;;2.13;;
39924;SDS011;25592;49.986;11.618;2022-08-03T03:31:31;3.00;;;1.83;;
39924;SDS011;25592;49.986;11.618;2022-08-03T03:34:17;3.85;;;2.40;;
39924;SDS011;25592;49.986;11.618;2022-08-03T03:37:03;2.78;;;1.63;;
39924;SDS011;25592;49.986;11.618;2022-08-03T03:39:48;5.88;;;2.10;;
39924;SDS011;25592;49.986;11.618;2022-08-03T03:42:34;3.75;;;1.80;;
39924;SDS011;25592;49.986;11.618;2022-08-03T03:45:19;3.53;;;2.05;;
39924;SDS011;25592;49.986;11.618;2022-08-03T03:48:06;3.58;;;2.13;;
39924;SDS011;25592;49.986;11.618;2022-08-03T03:50:52;6.03;;;2.72;;
39924;SDS011;25592;49.986;11.618;2022-08-03T03:53:37;5.28;;;2.30;;
39924;SDS011;25592;49.986;11.618;2022-08-03T03:56:22;3.13;;;1.90;;
39924;SDS011;25592;49.986;11.618;2022-08-03T03:59:08;3.72;;;2.13;;
39924;SDS011;25592;49.986;11.618;2022-08-03T04:01:53;4.80;;;2.05;;
39924;SDS011;25592;49.986;11.618;2022-08-03T04:04:43;4.57;;;1.90;;
39924;SDS011;25592;49.986;11.618;2022-08-03T04:08:03;3.40;;;2.22;;
39924;SDS011;25592;49.986;11.618;2022-08-03T04:11:12;2.90;;;1.90;;
39924;SDS011;25592;49.986;11.618;2022-08-03T04:14:25;2.88;;;2.00;;
39924;SDS011;25592;49.986;11.618;2022-08-03T04:17:16;3.22;;;2.20;;
39924;SDS011;25592;49.986;11.618;2022-08-03T04:20:03;3.40;;;2.05;;
39924;SDS011;25592;49.986;11.618;2022-08-03T04:22:49;3.90;;;2.10;;
39924;SDS011;25592;49.986;11.618;2022-08-03T04:25:36;6.60;;;3.03;;
39924;SDS011;25592;49.986;11.618;2022-08-03T04:28:23;6.07;;;3.30;;
39924;SDS011;25592;49.986;11.618;2022-08-03T04:31:16;5.53;;;3.40;;
39924;SDS011;25592;49.986;11.618;2022-08-03T04:34:04;7.63;;;3.47;;
39924;SDS011;25592;49.986;11.618;2022-08-03T04:36:50;8.35;;;4.85;;
39924;SDS011;25592;49.986;11.618;2022-08-03T04:39:41;6.00;;;4.00;;
39924;SDS011;25592;49.986;11.618;2022-08-03T04:42:28;5.78;;;3.15;;
39924;SDS011;25592;49.986;11.618;2022-08-03T04:45:16;5.32;;;3.10;;
39924;SDS011;25592;49.986;11.618;2022-08-03T04:48:03;8.32;;;4.10;;
39924;SDS011;25592;49.986;11.618;2022-08-03T04:50:49;5.13;;;2.90;;
39924;SDS011;25592;49.986;11.618;2022-08-03T04:53:34;6.63;;;3.55;;
39924;SDS011;25592;49.986;11.618;2022-08-03T04:56:21;4.97;;;3.15;;
39924;SDS011;25592;49.986;11.618;2022-08-03T04:59:07;4.32;;;2.88;;
39924;SDS011;25592;49.986;11.618;2022-08-03T05:01:52;4.63;;;2.83;;
39924;SDS011;25592;49.986;11.618;2022-08-03T05:04:38;4.82;;;3.17;;
39924;SDS011;25592;49.986;11.618;2022-08-03T05:07:25;6.35;;;2.78;;
39924;SDS011;25592;49.986;11.618;2022-08-03T05:10:20;5.72;;;3.13;;
39924;SDS011;25592;49.986;11.618;2022-08-03T05:13:05;3.50;;;2.47;;
39924;SDS011;25592;49.986;11.618;2022-08-03T05:15:55;4.15;;;2.30;;
39924;SDS011;25592;49.986;11.618;2022-08-03T05:18:41;3.63;;;2.38;;
39924;SDS011;25592;49.986;11.618;2022-08-03T05:21:26;3.33;;;1.98;;
39924;SDS011;25592;49.986;11.618;2022-08-03T05:24:32;3.50;;;2.28;;
39924;SDS011;25592;49.986;11.618;2022-08-03T05:27:17;6.88;;;2.90;;
39924;SDS011;25592;49.986;11.618;2022-08-03T05:30:03;3.67;;;2.50;;
39924;SDS011;25592;49.986;11.618;2022-08-03T05:33:09;5.18;;;2.80;;
39924;SDS011;25592;49.986;11.618;2022-08-03T05:35:55;3.67;;;2.58;;
39924;SDS011;25592;49.986;11.618;2022-08-03T05:38:48;4.30;;;2.80;;
39924;SDS011;25592;49.986;11.618;2022-08-03T05:41:33;4.05;;;2.90;;
39924;SDS011;25592;49.986;11.618;2022-08-03T05:44:21;3.72;;;2.38;;
39924;SDS011;25592;49.986;11.618;2022-08-03T05:47:09;3.58;;;2.47;;
39924;SDS011;25592;49.986;11.618;2022-08-03T05:49:54;4.65;;;2.80;;
39924;SDS011;25592;49.986;11.618;2022-08-03T05:52:39;3.65;;;2.60;;
39924;SDS011;25592;49.986;11.618;2022-08-03T05:55:27;3.92;;;2.55;;
39924;SDS011;25592;49.986;11.618;2022-08-03T05:58:12;5.93;;;2.85;;
39924;SDS011;25592;49.986;11.618;2022-08-03T06:00:58;4.30;;;2.42;;
39924;SDS011;25592;49.986;11.618;2022-08-03T06:03:44;3.20;;;2.20;;
39924;SDS011;25592;49.986;11.618;2022-08-03T06:06:30;4.45;;;2.97;;
39924;SDS011;25592;49.986;11.618;2022-08-03T06:09:16;4.72;;;2.85;;
39924;SDS011;25592;49.986;11.618;2022-08-03T06:12:02;4.97;;;2.45;;
39924;SDS011;25592;49.986;11.618;2022-08-03T06:14:47;4.57;;;2.50;;
39924;SDS011;25592;49.986;11.618;2022-08-03T06:17:33;3.70;;;2.28;;
39924;SDS011;25592;49.986;11.618;2022-08-03T06:20:21;5.80;;;3.75;;
39924;SDS011;25592;49.986;11.618;2022-08-03T06:23:11;6.20;;;3.03;;
39924;SDS011;25592;49.986;11.618;2022-08-03T06:26:01;3.83;;;2.35;;
39924;SDS011;25592;49.986;11.618;2022-08-03T06:28:47;7.63;;;3.33;;
39924;SDS011;25592;49.986;11.618;2022-08-03T06:31:37;5.93;;;3.45;;
39924;SDS011;25592;49.986;11.618;2022-08-03T06:34:24;7.22;;;3.30;;
39924;SDS011;25592;49.986;11.618;2022-08-03T06:37:19;7.65;;;3.35;;
39924;SDS011;25592;49.986;11.618;2022-08-03T06:40:04;8.45;;;3.03;;
39924;SDS011;25592;49.986;11.618;2022-08-03T06:42:50;4.78;;;2.60;;
39924;SDS011;25592;49.986;11.618;2022-08-03T06:45:35;6.90;;;2.90;;
39924;SDS011;25592;49.986;11.618;2022-08-03T06:48:21;5.60;;;2.53;;
39924;SDS011;25592;49.986;11.618;2022-08-03T06:51:07;4.00;;;2.42;;
39924;SDS011;25592;49.986;11.618;2022-08-03T06:53:53;4.47;;;2.50;;
39924;SDS011;25592;49.986;11.618;2022-08-03T06:56:38;7.10;;;2.80;;
39924;SDS011;25592;49.986;11.618;2022-08-03T06:59:23;5.45;;;3.03;;
39924;SDS011;25592;49.986;11.618;2022-08-03T07:02:29;6.60;;;2.72;;
39924;SDS011;25592;49.986;11.618;2022-08-03T07:05:15;4.72;;;2.78;;
39924;SDS011;25592;49.986;11.618;2022-08-03T07:08:01;3.33;;;2.42;;
39924;SDS011;25592;49.986;11.618;2022-08-03T07:10:46;5.15;;;2.90;;
39924;SDS011;25592;49.986;11.618;2022-08-03T07:13:32;3.70;;;2.25;;
39924;SDS011;25592;49.986;11.618;2022-08-03T07:16:17;6.43;;;3.08;;
39924;SDS011;25592;49.986;11.618;2022-08-03T07:19:02;6.88;;;2.83;;
39924;SDS011;25592;49.986;11.618;2022-08-03T07:21:48;4.10;;;2.58;;
39924;SDS011;25592;49.986;11.618;2022-08-03T07:24:37;5.63;;;2.38;;
39924;SDS011;25592;49.986;11.618;2022-08-03T07:27:22;3.40;;;2.55;;
39924;SDS011;25592;49.986;11.618;2022-08-03T07:30:08;4.15;;;2.38;;
39924;SDS011;25592;49.986;11.618;2022-08-03T07:32:53;3.22;;;2.20;;
39924;SDS011;25592;49.986;11.618;2022-08-03T07:35:39;4.30;;;2.20;;
39924;SDS011;25592;49.986;11.618;2022-08-03T07:38:24;3.72;;;2.20;;
39924;SDS011;25592;49.986;11.618;2022-08-03T07:41:10;4.60;;;2.05;;
39924;SDS011;25592;49.986;11.618;2022-08-03T07:43:55;3.60;;;2.30;;
39924;SDS011;25592;49.986;11.618;2022-08-03T07:46:41;4.13;;;1.98;;
39924;SDS011;25592;49.986;11.618;2022-08-03T07:49:27;5.47;;;2.60;;
39924;SDS011;25592;49.986;11.618;2022-08-03T07:52:12;4.13;;;2.55;;
39924;SDS011;25592;49.986;11.618;2022-08-03T07:55:19;7.60;;;2.28;;
39924;SDS011;25592;49.986;11.618;2022-08-03T07:58:15;5.97;;;2.08;;
39924;SDS011;25592;49.986;11.618;2022-08-03T08:01:19;4.60;;;2.10;;
39924;SDS011;25592;49.986;11.618;2022-08-03T08:04:13;4.07;;;2.13;;
39924;SDS011;25592;49.986;11.618;2022-08-03T08:07:13;3.63;;;2.10;;
39924;SDS011;25592;49.986;11.618;2022-08-03T08:10:02;4.93;;;2.17;;
39924;SDS011;25592;49.986;11.618;2022-08-03T08:12:54;3.00;;;1.90;;
39924;SDS011;25592;49.986;11.618;2022-08-03T08:15:40;3.92;;;2.15;;
39924;SDS011;25592;49.986;11.618;2022-08-03T08:18:27;3.40;;;2.00;;
39924;SDS011;25592;49.986;11.618;2022-08-03T08:21:16;5.35;;;1.90;;
39924;SDS011;25592;49.986;11.618;2022-08-03T08:24:01;5.38;;;2.28;;
39924;SDS011;25592;49.986;11.618;2022-08-03T08:26:46;4.75;;;2.22;;
39924;SDS011;25592;49.986;11.618;2022-08-03T08:29:32;4.03;;;2.30;;
39924;SDS011;25592;49.986;11.618;2022-08-03T08:32:18;6.57;;;2.10;;
39924;SDS011;25592;49.986;11.618;2022-08-03T08:35:04;5.60;;;2.15;;
39924;SDS011;25592;49.986;11.618;2022-08-03T08:37:50;3.90;;;1.75;;
39924;SDS011;25592;49.986;11.618;2022-08-03T08:40:36;6.13;;;2.25;;
39924;SDS011;25592;49.986;11.618;2022-08-03T08:43:21;6.07;;;1.95;;
39924;SDS011;25592;49.986;11.618;2022-08-03T08:46:07;7.68;;;2.20;;
39924;SDS011;25592;49.986;11.618;2022-08-03T08:48:56;8.70;;;1.80;;
39924;SDS011;25592;49.986;11.618;2022-08-03T08:51:48;4.45;;;1.83;;
39924;SDS011;25592;49.986;11.618;2022-08-03T08:54:45;4.93;;;1.70;;
39924;SDS011;25592;49.986;11.618;2022-08-03T08:57:34;3.55;;;1.70;;
39924;SDS011;25592;49.986;11.618;2022-08-03T09:00:41;2.35;;;1.52;;
39924;SDS011;25592;49.986;11.618;2022-08-03T09:03:28;3.42;;;1.98;;
39924;SDS011;25592;49.986;11.618;2022-08-03T09:06:16;3.33;;;1.92;;
39924;SDS011;25592;49.986;11.618;2022-08-03T09:09:01;3.17;;;1.70;;
39924;SDS011;25592;49.986;11.618;2022-08-03T09:11:47;3.15;;;1.88;;
39924;SDS011;25592;49.986;11.618;2022-08-03T09:14:44;3.25;;;1.50;;
39924;SDS011;25592;49.986;11.618;2022-08-03T09:17:51;4.88;;;2.10;;
39924;SDS011;25592;49.986;11.618;2022-08-03T09:20:38;6.03;;;1.70;;
39924;SDS011;25592;49.986;11.618;2022-08-03T09:23:23;2.50;;;1.50;;
39924;SDS011;25592;49.986;11.618;2022-08-03T09:26:29;4.78;;;1.75;;
39924;SDS011;25592;49.986;11.618;2022-08-03T09:29:18;4.50;;;1.70;;
39924;SDS011;25592;49.986;11.618;2022-08-03T09:32:04;6.50;;;1.75;;
39924;SDS011;25592;49.986;11.618;2022-08-03T09:34:51;3.70;;;1.65;;
39924;SDS011;25592;49.986;11.618;2022-08-03T09:37:42;3.15;;;1.88;;
39924;SDS011;25592;49.986;11.618;2022-08-03T09:40:47;2.85;;;1.55;;
39924;SDS011;25592;49.986;11.618;2022-08-03T09:43:41;3.03;;;1.50;;
39924;SDS011;25592;49.986;11.618;2022-08-03T09:46:30;2.53;;;1.60;;
39924;SDS011;25592;49.986;11.618;2022-08-03T09:49:16;4.47;;;1.58;;
39924;SDS011;25592;49.986;11.618;2022-08-03T09:52:11;2.60;;;1.60;;
39924;SDS011;25592;49.986;11.618;2022-08-03T09:55:18;3.75;;;1.52;;
39924;SDS011;25592;49.986;11.618;2022-08-03T09:58:28;2.42;;;1.50;;
39924;SDS011;25592;49.986;11.618;2022-08-03T10:01:15;5.70;;;2.00;;
39924;SDS011;25592;49.986;11.618;2022-08-03T10:04:12;3.17;;;1.60;;
39924;SDS011;25592;49.986;11.618;2022-08-03T10:07:07;3.53;;;1.70;;
39924;SDS011;25592;49.986;11.618;2022-08-03T10:09:55;3.63;;;1.65;;
39924;SDS011;25592;49.986;11.618;2022-08-03T10:13:05;4.72;;;2.08;;
39924;SDS011;25592;49.986;11.618;2022-08-03T10:15:50;5.13;;;1.67;;
39924;SDS011;25592;49.986;11.618;2022-08-03T10:18:55;6.05;;;2.30;;
39924;SDS011;25592;49.986;11.618;2022-08-03T10:21:52;3.90;;;2.00;;
39924;SDS011;25592;49.986;11.618;2022-08-03T10:25:25;3.03;;;1.85;;
39924;SDS011;25592;49.986;11.618;2022-08-03T10:27:53;4.00;;;1.73;;
39924;SDS011;25592;49.986;11.618;2022-08-03T10:30:42;3.53;;;1.63;;
39924;SDS011;25592;49.986;11.618;2022-08-03T10:33:33;4.45;;;1.90;;
39924;SDS011;25592;49.986;11.618;2022-08-03T10:36:36;5.15;;;2.03;;
39924;SDS011;25592;49.986;11.618;2022-08-03T10:39:26;3.05;;;1.40;;
39924;SDS011;25592;49.986;11.618;2022-08-03T10:42:13;5.18;;;2.28;;
39924;SDS011;25592;49.986;11.618;2022-08-03T10:45:03;5.05;;;2.15;;
39924;SDS011;25592;49.986;11.618;2022-08-03T10:50:36;3.92;;;2.00;;
39924;SDS011;25592;49.986;11.618;2022-08-03T10:53:33;5.15;;;1.80;;
39924;SDS011;25592;49.986;11.618;2022-08-03T10:56:36;3.47;;;1.80;;
39924;SDS011;25592;49.986;11.618;2022-08-03T11:06:13;2.70;;;1.60;;
39924;SDS011;25592;49.986;11.618;2022-08-03T11:14:44;3.30;;;1.45;;
39924;SDS011;25592;49.986;11.618;2022-08-03T11:17:32;3.05;;;1.60;;
39924;SDS011;25592;49.986;11.618;2022-08-03T11:23:46;2.78;;;1.67;;
39924;SDS011;25592;49.986;11.618;2022-08-03T11:27:14;3.15;;;1.65;;
39924;SDS011;25592;49.986;11.618;2022-08-03T11:32:53;5.18;;;1.67;;
39924;SDS011;25592;49.986;11.618;2022-08-03T11:35:58;2.35;;;1.40;;
39924;SDS011;25592;49.986;11.618;2022-08-03T11:42:05;3.42;;;1.70;;
39924;SDS011;25592;49.986;11.618;2022-08-03T11:45:06;2.35;;;1.50;;
39924;SDS011;25592;49.986;11.618;2022-08-03T11:47:53;3.40;;;1.80;;
39924;SDS011;25592;49.986;11.618;2022-08-03T11:50:39;2.85;;;1.83;;
39924;SDS011;25592;49.986;11.618;2022-08-03T11:53:26;5.20;;;1.65;;
39924;SDS011;25592;49.986;11.618;2022-08-03T11:56:12;5.18;;;1.92;;
39924;SDS011;25592;49.986;11.618;2022-08-03T11:58:57;2.70;;;1.70;;
39924;SDS011;25592;49.986;11.618;2022-08-03T12:02:10;6.30;;;1.52;;
39924;SDS011;25592;49.986;11.618;2022-08-03T12:05:00;3.53;;;1.90;;
39924;SDS011;25592;49.986;11.618;2022-08-03T12:07:45;3.55;;;1.60;;
39924;SDS011;25592;49.986;11.618;2022-08-03T12:10:49;4.90;;;1.70;;
39924;SDS011;25592;49.986;11.618;2022-08-03T12:13:42;4.15;;;1.60;;
39924;SDS011;25592;49.986;11.618;2022-08-03T12:16:48;3.80;;;1.52;;
39924;SDS011;25592;49.986;11.618;2022-08-03T12:19:41;2.50;;;1.70;;
39924;SDS011;25592;49.986;11.618;2022-08-03T12:22:34;3.63;;;1.58;;
39924;SDS011;25592;49.986;11.618;2022-08-03T12:25:23;3.35;;;1.50;;
39924;SDS011;25592;49.986;11.618;2022-08-03T12:28:23;2.80;;;1.60;;
39924;SDS011;25592;49.986;11.618;2022-08-03T12:31:21;3.15;;;1.60;;
39924;SDS011;25592;49.986;11.618;2022-08-03T12:34:07;3.15;;;1.77;;
39924;SDS011;25592;49.986;11.618;2022-08-03T12:36:53;6.10;;;1.77;;
39924;SDS011;25592;49.986;11.618;2022-08-03T12:39:43;4.05;;;1.85;;
39924;SDS011;25592;49.986;11.618;2022-08-03T12:42:47;5.07;;;1.67;;
39924;SDS011;25592;49.986;11.618;2022-08-03T12:45:33;2.75;;;1.63;;
39924;SDS011;25592;49.986;11.618;2022-08-03T12:48:20;6.07;;;1.88;;
39924;SDS011;25592;49.986;11.618;2022-08-03T12:51:08;3.05;;;1.85;;
39924;SDS011;25592;49.986;11.618;2022-08-03T12:53:55;3.63;;;1.60;;
39924;SDS011;25592;49.986;11.618;2022-08-03T12:57:01;4.13;;;1.90;;
39924;SDS011;25592;49.986;11.618;2022-08-03T12:59:50;3.25;;;1.88;;
39924;SDS011;25592;49.986;11.618;2022-08-03T13:02:39;2.67;;;1.75;;
39924;SDS011;25592;49.986;11.618;2022-08-03T13:05:30;3.40;;;1.50;;
39924;SDS011;25592;49.986;11.618;2022-08-03T13:08:19;2.97;;;1.85;;
39924;SDS011;25592;49.986;11.618;2022-08-03T13:11:25;3.78;;;1.90;;
39924;SDS011;25592;49.986;11.618;2022-08-03T13:14:31;5.07;;;1.70;;
39924;SDS011;25592;49.986;11.618;2022-08-03T13:17:16;4.45;;;1.70;;
39924;SDS011;25592;49.986;11.618;2022-08-03T13:20:03;2.45;;;1.40;;
39924;SDS011;25592;49.986;11.618;2022-08-03T13:22:49;3.05;;;1.55;;
39924;SDS011;25592;49.986;11.618;2022-08-03T13:25:35;2.83;;;1.90;;
39924;SDS011;25592;49.986;11.618;2022-08-03T13:28:20;2.92;;;1.70;;
39924;SDS011;25592;49.986;11.618;2022-08-03T13:31:06;3.20;;;1.67;;
39924;SDS011;25592;49.986;11.618;2022-08-03T13:33:51;4.25;;;1.60;;
39924;SDS011;25592;49.986;11.618;2022-08-03T13:36:36;3.67;;;1.70;;
39924;SDS011;25592;49.986;11.618;2022-08-03T13:39:42;5.10;;;1.70;;
39924;SDS011;25592;49.986;11.618;2022-08-03T13:42:44;3.78;;;2.05;;
39924;SDS011;25592;49.986;11.618;2022-08-03T13:45:29;4.22;;;2.35;;
39924;SDS011;25592;49.986;11.618;2022-08-03T13:48:15;3.15;;;1.90;;
39924;SDS011;25592;49.986;11.618;2022-08-03T13:51:20;4.10;;;1.80;;
39924;SDS011;25592;49.986;11.618;2022-08-03T13:54:07;3.65;;;1.83;;
39924;SDS011;25592;49.986;11.618;2022-08-03T13:56:53;3.92;;;1.90;;
39924;SDS011;25592;49.986;11.618;2022-08-03T13:59:44;3.47;;;2.00;;
39924;SDS011;25592;49.986;11.618;2022-08-03T14:02:30;5.35;;;1.63;;
39924;SDS011;25592;49.986;11.618;2022-08-03T14:05:15;3.55;;;1.73;;
39924;SDS011;25592;49.986;11.618;2022-08-03T14:08:00;2.80;;;1.70;;
39924;SDS011;25592;49.986;11.618;2022-08-03T14:10:48;2.63;;;1.83;;
39924;SDS011;25592;49.986;11.618;2022-08-03T14:13:33;3.00;;;1.70;;
39924;SDS011;25592;49.986;11.618;2022-08-03T14:16:19;4.40;;;1.73;;
39924;SDS011;25592;49.986;11.618;2022-08-03T14:19:05;6.60;;;2.08;;
39924;SDS011;25592;49.986;11.618;2022-08-03T14:21:52;5.32;;;1.48;;
39924;SDS011;25592;49.986;11.618;2022-08-03T14:24:50;4.65;;;2.00;;
39924;SDS011;25592;49.986;11.618;2022-08-03T14:27:36;6.38;;;2.00;;
39924;SDS011;25592;49.986;11.618;2022-08-03T14:30:22;4.72;;;1.98;;
39924;SDS011;25592;49.986;11.618;2022-08-03T14:33:07;2.65;;;1.85;;
39924;SDS011;25592;49.986;11.618;2022-08-03T14:35:53;3.30;;;2.00;;
39924;SDS011;25592;49.986;11.618;2022-08-03T14:38:38;3.72;;;2.00;;
39924;SDS011;25592;49.986;11.618;2022-08-03T14:41:23;5.13;;;2.05;;
39924;SDS011;25592;49.986;11.618;2022-08-03T14:44:09;3.58;;;1.83;;
39924;SDS011;25592;49.986;11.618;2022-08-03T14:46:54;3.25;;;1.80;;
39924;SDS011;25592;49.986;11.618;2022-08-03T14:49:40;3.10;;;1.90;;
39924;SDS011;25592;49.986;11.618;2022-08-03T14:52:45;3.33;;;1.83;;
39924;SDS011;25592;49.986;11.618;2022-08-03T14:55:31;3.40;;;1.80;;
39924;SDS011;25592;49.986;11.618;2022-08-03T14:58:25;2.63;;;1.60;;
39924;SDS011;25592;49.986;11.618;2022-08-03T15:01:11;4.35;;;1.83;;
39924;SDS011;25592;49.986;11.618;2022-08-03T15:04:16;2.92;;;1.90;;
39924;SDS011;25592;49.986;11.618;2022-08-03T15:07:02;4.75;;;1.70;;
39924;SDS011;25592;49.986;11.618;2022-08-03T15:09:48;5.40;;;2.03;;
39924;SDS011;25592;49.986;11.618;2022-08-03T15:12:33;4.15;;;1.92;;
39924;SDS011;25592;49.986;11.618;2022-08-03T15:15:18;5.68;;;1.70;;
39924;SDS011;25592;49.986;11.618;2022-08-03T15:18:04;3.47;;;1.70;;
39924;SDS011;25592;49.986;11.618;2022-08-03T15:20:50;3.92;;;1.70;;
39924;SDS011;25592;49.986;11.618;2022-08-03T15:23:35;4.95;;;1.67;;
39924;SDS011;25592;49.986;11.618;2022-08-03T15:26:21;4.47;;;1.90;;
39924;SDS011;25592;49.986;11.618;2022-08-03T15:29:20;3.35;;;1.73;;
39924;SDS011;25592;49.986;11.618;2022-08-03T15:32:25;4.03;;;1.65;;
39924;SDS011;25592;49.986;11.618;2022-08-03T15:35:10;6.22;;;1.95;;
39924;SDS011;25592;49.986;11.618;2022-08-03T15:37:56;3.40;;;1.60;;
39924;SDS011;25592;49.986;11.618;2022-08-03T15:40:41;2.72;;;1.80;;
39924;SDS011;25592;49.986;11.618;2022-08-03T15:43:27;5.03;;;1.80;;
39924;SDS011;25592;49.986;11.618;2022-08-03T15:46:12;3.15;;;1.73;;
39924;SDS011;25592;49.986;11.618;2022-08-03T15:49:14;2.67;;;1.60;;
39924;SDS011;25592;49.986;11.618;2022-08-03T15:52:00;4.22;;;1.92;;
39924;SDS011;25592;49.986;11.618;2022-08-03T15:54:46;3.85;;;1.73;;
39924;SDS011;25592;49.986;11.618;2022-08-03T15:57:31;4.97;;;1.98;;
39924;SDS011;25592;49.986;11.618;2022-08-03T16:00:16;3.13;;;1.73;;
39924;SDS011;25592;49.986;11.618;2022-08-03T16:03:02;3.75;;;1.65;;
39924;SDS011;25592;49.986;11.618;2022-08-03T16:05:47;4.00;;;1.60;;
39924;SDS011;25592;49.986;11.618;2022-08-03T16:08:33;4.18;;;2.00;;
39924;SDS011;25592;49.986;11.618;2022-08-03T16:11:18;3.45;;;2.05;;
39924;SDS011;25592;49.986;11.618;2022-08-03T16:14:04;3.00;;;1.88;;
39924;SDS011;25592;49.986;11.618;2022-08-03T16:17:09;5.35;;;1.58;;
39924;SDS011;25592;49.986;11.618;2022-08-03T16:19:55;4.05;;;1.70;;
39924;SDS011;25592;49.986;11.618;2022-08-03T16:22:45;5.50;;;1.98;;
39924;SDS011;25592;49.986;11.618;2022-08-03T16:28:17;2.70;;;1.80;;
39924;SDS011;25592;49.986;11.618;2022-08-03T16:31:03;3.90;;;1.90;;
39924;SDS011;25592;49.986;11.618;2022-08-03T16:33:50;2.60;;;1.70;;
39924;SDS011;25592;49.986;11.618;2022-08-03T16:36:35;5.68;;;1.55;;
39924;SDS011;25592;49.986;11.618;2022-08-03T16:39:21;3.17;;;1.70;;
39924;SDS011;25592;49.986;11.618;2022-08-03T16:42:06;3.25;;;2.03;;
39924;SDS011;25592;49.986;11.618;2022-08-03T16:44:52;4.47;;;1.83;;
39924;SDS011;25592;49.986;11.618;2022-08-03T16:47:37;6.28;;;1.63;;
39924;SDS011;25592;49.986;11.618;2022-08-03T16:50:24;7.20;;;1.80;;
39924;SDS011;25592;49.986;11.618;2022-08-03T16:53:10;6.57;;;1.35;;
39924;SDS011;25592;49.986;11.618;2022-08-03T16:56:01;4.40;;;1.80;;
39924;SDS011;25592;49.986;11.618;2022-08-03T16:58:53;6.95;;;1.52;;
39924;SDS011;25592;49.986;11.618;2022-08-03T17:01:39;5.30;;;2.03;;
39924;SDS011;25592;49.986;11.618;2022-08-03T17:04:24;2.45;;;1.40;;
39924;SDS011;25592;49.986;11.618;2022-08-03T17:07:13;2.80;;;1.80;;
39924;SDS011;25592;49.986;11.618;2022-08-03T17:09:59;4.22;;;1.80;;
39924;SDS011;25592;49.986;11.618;2022-08-03T17:12:44;2.38;;;1.55;;
39924;SDS011;25592;49.986;11.618;2022-08-03T17:15:30;3.95;;;2.00;;
39924;SDS011;25592;49.986;11.618;2022-08-03T17:18:37;3.10;;;1.67;;
39924;SDS011;25592;49.986;11.618;2022-08-03T17:21:32;2.40;;;1.60;;
39924;SDS011;25592;49.986;11.618;2022-08-03T17:24:26;4.53;;;1.60;;
39924;SDS011;25592;49.986;11.618;2022-08-03T17:27:15;2.42;;;1.60;;
39924;SDS011;25592;49.986;11.618;2022-08-03T17:30:24;4.22;;;1.60;;